createdAt,value
2019-06-26T00:13:48.947Z,24.90
2019-06-26T00:18:52.567Z,24.90
2019-06-26T00:34:03.039Z,24.70
2019-06-26T00:39:06.743Z,24.70
2019-06-26T00:49:14.318Z,24.60
2019-06-26T00:54:17.959Z,24.50
2019-06-26T01:14:37.904Z,24.20
2019-06-26T01:19:41.614Z,24.20
2019-06-26T01:29:48.489Z,24.10
2019-06-26T01:39:57.625Z,24.10
2019-06-26T01:45:01.295Z,24.10
2019-06-26T01:50:05.570Z,24.00
2019-06-26T02:00:13.640Z,23.90
2019-06-26T02:05:19.695Z,23.90
2019-06-26T02:10:25.316Z,23.80
2019-06-26T02:15:29.385Z,23.80
2019-06-26T02:20:32.977Z,23.80
2019-06-26T02:25:37.544Z,23.70
2019-06-26T02:30:41.451Z,23.70
2019-06-26T02:40:48.150Z,23.70
2019-06-26T02:45:51.519Z,23.70
2019-06-26T02:50:55.709Z,23.80
2019-06-26T03:01:08.346Z,23.90
2019-06-26T03:06:13.927Z,24.10
2019-06-26T03:11:17.695Z,24.20
2019-06-26T03:16:21.153Z,24.20
2019-06-26T03:41:42.408Z,24.70
2019-06-26T03:51:49.914Z,25.00
2019-06-26T03:56:53.293Z,25.00
2019-06-26T04:01:56.924Z,25.20
2019-06-26T04:07:00.506Z,25.30
2019-06-26T04:12:05.213Z,25.40
2019-06-26T04:17:09.053Z,25.50
2019-06-26T04:27:16.159Z,25.70
2019-06-26T04:42:28.507Z,26.10
2019-06-26T04:52:35.519Z,26.40
2019-06-26T05:02:46.035Z,26.60
2019-06-26T05:07:54.274Z,26.90
2019-06-26T05:12:57.936Z,26.90
2019-06-26T05:18:02.955Z,27.10
2019-06-26T05:23:06.291Z,27.30
2019-06-26T05:33:13.395Z,27.50
2019-06-26T05:38:16.696Z,27.70
2019-06-26T05:43:20.450Z,27.90
2019-06-26T05:53:27.299Z,28.20
2019-06-26T06:08:41.519Z,28.70
2019-06-26T06:13:45.404Z,28.90
2019-06-26T06:23:52.598Z,29.40
2019-06-26T06:28:56.706Z,29.60
2019-06-26T06:34:00.764Z,29.70
2019-06-26T06:44:09.498Z,29.90
2019-06-26T06:49:12.795Z,30.00
2019-06-26T06:54:16.458Z,30.10
2019-06-26T06:59:20.381Z,30.20
2019-06-26T07:09:28.489Z,30.50
2019-06-26T07:19:35.917Z,30.60
2019-06-26T07:24:40.224Z,30.70
2019-06-26T07:29:43.928Z,30.80
2019-06-26T07:39:58.748Z,30.90
2019-06-26T07:50:03.902Z,31.20
2019-06-26T08:05:18.063Z,31.40
2019-06-26T08:10:21.559Z,31.20
2019-06-26T08:20:28.845Z,31.40
2019-06-26T08:30:37.743Z,31.70
2019-06-26T08:45:48.551Z,31.70
2019-06-26T08:55:59.692Z,31.80
2019-06-26T09:11:11.840Z,32.20
2019-06-26T09:16:15.241Z,32.10
2019-06-26T09:21:18.656Z,32.10
2019-06-26T09:31:28.149Z,32.40
2019-06-26T09:36:31.820Z,32.50
2019-06-26T09:41:35.134Z,32.70
2019-06-26T09:46:38.565Z,32.70
2019-06-26T09:56:45.675Z,32.70
2019-06-26T10:01:49.559Z,32.80
2019-06-26T10:06:53.475Z,32.90
2019-06-26T10:11:56.854Z,32.90
2019-06-26T10:17:01.131Z,32.90
2019-06-26T10:22:04.873Z,33.00
2019-06-26T10:32:12.787Z,33.10
2019-06-26T10:42:19.603Z,33.40
2019-06-26T10:47:23.195Z,33.50
2019-06-26T10:52:26.502Z,33.70
2019-06-26T10:57:30.235Z,33.80
2019-06-26T11:02:35.208Z,33.90
2019-06-26T11:12:43.765Z,33.80
2019-06-26T11:17:52.029Z,33.70
2019-06-26T11:22:56.209Z,33.80
2019-06-26T11:27:59.603Z,34.10
2019-06-26T11:33:03.891Z,34.30
2019-06-26T11:38:07.469Z,34.40
2019-06-26T11:48:14.444Z,34.50
2019-06-26T11:53:17.831Z,34.60
2019-06-26T11:58:21.733Z,34.40
2019-06-26T12:03:26.046Z,34.40
2019-06-26T12:08:29.349Z,34.60
2019-06-26T12:13:33.594Z,34.90
2019-06-26T12:18:37.031Z,35.10
2019-06-26T12:23:41.194Z,35.20
2019-06-26T12:28:45.448Z,35.00
2019-06-26T12:33:49.013Z,35.10
2019-06-26T12:38:53.095Z,35.20
2019-06-26T12:49:00.891Z,35.10
2019-06-26T12:54:04.188Z,35.20
2019-06-26T12:59:10.853Z,35.40
2019-06-26T13:09:17.871Z,35.20
2019-06-26T13:14:21.153Z,35.20
2019-06-26T13:19:24.920Z,35.30
2019-06-26T13:24:29.729Z,35.50
2019-06-26T13:29:33.761Z,35.70
2019-06-26T13:34:37.317Z,35.60
2019-06-26T13:39:40.345Z,35.60
2019-06-26T13:44:44.040Z,35.80
2019-06-26T13:49:47.560Z,35.90
2019-06-26T13:54:51.056Z,35.80
2019-06-26T13:59:54.072Z,35.80
2019-06-26T14:04:57.452Z,35.70
2019-06-26T14:10:01.738Z,36.30
2019-06-26T14:15:05.428Z,36.30
2019-06-26T14:20:09.212Z,38.90
2019-06-26T14:25:13.319Z,42.60
2019-06-26T14:30:16.821Z,45.20
2019-06-26T14:35:20.128Z,46.80
2019-06-26T14:40:23.464Z,49.80
2019-06-26T14:45:27.270Z,50.40
2019-06-26T14:50:30.976Z,49.70
2019-06-26T14:55:34.271Z,50.30
2019-06-26T15:00:37.860Z,51.90
2019-06-26T15:05:41.586Z,53.10
2019-06-26T15:10:45.545Z,52.90
2019-06-26T15:15:49.084Z,54.00
2019-06-26T15:20:52.437Z,54.00
2019-06-26T15:25:55.732Z,54.60
2019-06-26T15:30:59.056Z,54.30
2019-06-26T15:36:02.662Z,56.80
2019-06-26T15:41:07.059Z,57.30
2019-06-26T15:46:10.444Z,58.60
2019-06-26T15:51:13.765Z,55.00
2019-06-26T15:56:18.660Z,55.80
2019-06-26T16:01:22.653Z,54.10
2019-06-26T16:06:26.346Z,54.60
2019-06-26T16:11:30.155Z,56.80
2019-06-26T16:16:35.438Z,56.60
2019-06-26T16:21:39.866Z,56.00
2019-06-26T16:26:43.218Z,53.60
2019-06-26T16:31:46.966Z,51.40
2019-06-26T16:36:51.073Z,51.60
2019-06-26T16:41:54.478Z,53.70
2019-06-26T16:46:59.360Z,52.80
2019-06-26T16:52:02.854Z,53.30
2019-06-26T16:57:06.187Z,52.40
2019-06-26T17:07:14.158Z,49.50
2019-06-26T17:17:22.580Z,44.90
2019-06-26T17:22:27.048Z,45.00
2019-06-26T17:27:30.364Z,46.10
2019-06-26T17:32:33.768Z,46.10
2019-06-26T17:37:37.081Z,46.20
2019-06-26T18:07:58.711Z,36.60
2019-06-26T18:13:01.959Z,36.60
2019-06-26T18:23:09.859Z,33.90
2019-06-26T18:28:13.571Z,33.30
2019-06-26T18:33:17.014Z,32.90
2019-06-26T18:58:35.046Z,31.00
2019-06-26T19:29:03.630Z,30.10
2019-06-26T19:34:07.651Z,30.00
2019-06-26T19:49:19.343Z,29.80
2019-06-26T19:54:27.849Z,29.70
2019-06-26T19:59:29.990Z,29.60
2019-06-26T20:04:33.456Z,29.50
2019-06-26T20:09:36.894Z,29.50
2019-06-26T20:24:48.974Z,29.10
2019-06-26T20:29:52.792Z,29.00
2019-06-26T20:50:11.389Z,28.80
2019-06-26T21:05:28.706Z,28.70
2019-06-26T21:15:35.808Z,28.80
2019-06-26T21:25:43.592Z,28.70
2019-06-26T21:51:04.097Z,28.60
2019-06-26T21:56:09.215Z,28.50
2019-06-26T22:06:16.774Z,28.40
2019-06-26T22:11:20.817Z,28.40
2019-06-26T22:16:24.812Z,28.40
2019-06-26T22:26:31.682Z,26.80
2019-06-26T22:31:35.975Z,26.60
2019-06-26T22:41:47.152Z,26.10
2019-06-26T22:46:50.754Z,26.10
2019-06-26T22:51:54.716Z,26.10
2019-06-26T22:56:58.061Z,26.20
2019-06-26T23:02:01.399Z,26.20
2019-06-26T23:07:05.057Z,26.10
2019-06-26T23:12:08.803Z,26.10
2019-06-26T23:17:12.561Z,26.10
2019-06-26T23:27:19.918Z,25.90
2019-06-26T23:32:24.214Z,25.80
2019-06-26T23:42:31.902Z,25.60
2019-06-26T23:57:58.670Z,25.30
